createdAt,value
2018-01-23T00:00:05.502Z,1007.06
2018-01-23T00:01:05.499Z,1007.04
2018-01-23T00:02:05.493Z,1007.05
2018-01-23T00:03:05.491Z,1007.09
2018-01-23T00:04:05.483Z,1007.03
2018-01-23T00:05:05.478Z,1007.08
2018-01-23T00:06:05.472Z,1007.09
2018-01-23T00:07:05.468Z,1007.12
2018-01-23T00:08:05.463Z,1007.12
2018-01-23T00:09:05.458Z,1007.08
2018-01-23T00:10:05.454Z,1007.09
2018-01-23T00:11:05.449Z,1007.12
2018-01-23T00:12:05.446Z,1007.08
2018-01-23T00:13:05.441Z,1007.14
2018-01-23T00:14:05.435Z,1007.10
2018-01-23T00:15:05.431Z,1007.14
2018-01-23T00:16:05.426Z,1007.15
2018-01-23T00:17:05.422Z,1007.15
2018-01-23T00:18:05.416Z,1007.16
2018-01-23T00:19:05.411Z,1007.18
2018-01-23T00:20:05.408Z,1007.15
2018-01-23T00:21:05.403Z,1007.18
2018-01-23T00:22:05.397Z,1007.13
2018-01-23T00:23:05.391Z,1007.21
2018-01-23T00:24:05.387Z,1007.21
2018-01-23T00:25:05.384Z,1007.19
2018-01-23T00:26:05.379Z,1007.18
2018-01-23T00:27:05.374Z,1007.17
2018-01-23T00:28:05.369Z,1007.23
2018-01-23T00:29:05.364Z,1007.24
2018-01-23T00:30:05.358Z,1007.27
2018-01-23T00:31:05.354Z,1007.29
2018-01-23T00:32:05.348Z,1007.27
2018-01-23T00:33:05.343Z,1007.30
2018-01-23T00:34:05.337Z,1007.37
2018-01-23T00:35:05.334Z,1007.29
2018-01-23T00:36:05.329Z,1007.30
2018-01-23T00:37:05.326Z,1007.30
2018-01-23T00:38:05.319Z,1007.33
2018-01-23T00:39:05.313Z,1007.33
2018-01-23T00:40:05.309Z,1007.37
2018-01-23T00:41:05.306Z,1007.36
2018-01-23T00:42:05.298Z,1007.35
2018-01-23T00:43:05.296Z,1007.36
2018-01-23T00:44:05.289Z,1007.31
2018-01-23T00:45:05.286Z,1007.27
2018-01-23T00:46:05.279Z,1007.28
2018-01-23T00:47:05.274Z,1007.27
2018-01-23T00:48:05.270Z,1007.22
2018-01-23T00:49:05.266Z,1007.28
2018-01-23T00:50:05.260Z,1007.31
2018-01-23T00:51:05.255Z,1007.32
2018-01-23T00:52:05.250Z,1007.35
2018-01-23T00:53:05.246Z,1007.38
2018-01-23T00:54:05.244Z,1007.32
2018-01-23T00:55:05.237Z,1007.37
2018-01-23T00:56:05.232Z,1007.33
2018-01-23T00:57:05.229Z,1007.30
2018-01-23T00:58:05.221Z,1007.29
2018-01-23T00:59:05.216Z,1007.25
2018-01-23T01:00:05.212Z,1007.27
2018-01-23T01:01:05.207Z,1007.33
2018-01-23T01:02:05.200Z,1007.32
2018-01-23T01:03:05.197Z,1007.28
2018-01-23T01:04:05.193Z,1007.25
2018-01-23T01:05:05.196Z,1007.21
2018-01-23T01:06:05.184Z,1007.19
2018-01-23T01:07:05.178Z,1007.20
2018-01-23T01:08:05.172Z,1007.22
2018-01-23T01:09:05.168Z,1007.29
2018-01-23T01:10:05.163Z,1007.28
2018-01-23T01:11:05.157Z,1007.28
2018-01-23T01:12:05.152Z,1007.27
2018-01-23T01:13:05.158Z,1007.32
2018-01-23T01:14:05.143Z,1007.37
2018-01-23T01:15:05.139Z,1007.34
2018-01-23T01:16:05.134Z,1007.33
2018-01-23T01:17:05.129Z,1007.36
2018-01-23T01:18:05.124Z,1007.35
2018-01-23T01:19:05.118Z,1007.29
2018-01-23T01:20:05.114Z,1007.33
2018-01-23T01:21:05.109Z,1007.36
2018-01-23T01:22:05.103Z,1007.37
2018-01-23T01:23:05.100Z,1007.35
2018-01-23T01:24:05.095Z,1007.34
2018-01-23T01:25:05.089Z,1007.36
2018-01-23T01:26:05.084Z,1007.39
2018-01-23T01:27:05.080Z,1007.41
2018-01-23T01:28:05.074Z,1007.39
2018-01-23T01:29:05.070Z,1007.43
2018-01-23T01:30:05.064Z,1007.46
2018-01-23T01:31:05.059Z,1007.51
2018-01-23T01:32:05.055Z,1007.56
2018-01-23T01:33:05.050Z,1007.58
2018-01-23T01:34:05.044Z,1007.58
2018-01-23T01:35:05.040Z,1007.63
2018-01-23T01:36:05.034Z,1007.64
2018-01-23T01:37:05.029Z,1007.66
2018-01-23T01:38:05.023Z,1007.68
2018-01-23T01:39:05.018Z,1007.71
2018-01-23T01:40:05.014Z,1007.75
2018-01-23T01:41:05.008Z,1007.74
2018-01-23T01:42:05.001Z,1007.78
2018-01-23T01:43:04.998Z,1007.82
2018-01-23T01:44:04.993Z,1007.76
2018-01-23T01:45:04.987Z,1007.81
2018-01-23T01:46:04.982Z,1007.77
2018-01-23T01:47:04.976Z,1007.79
2018-01-23T01:48:04.971Z,1007.83
2018-01-23T01:49:04.967Z,1007.82
2018-01-23T01:50:04.961Z,1007.87
2018-01-23T01:51:04.957Z,1007.83
2018-01-23T01:52:04.952Z,1007.89
2018-01-23T01:53:04.947Z,1007.82
2018-01-23T01:54:04.941Z,1007.86
2018-01-23T01:55:04.938Z,1007.87
2018-01-23T01:56:04.931Z,1007.83
2018-01-23T01:57:04.927Z,1007.84
2018-01-23T01:58:04.921Z,1007.85
2018-01-23T01:59:04.916Z,1007.92
2018-01-23T02:00:04.913Z,1007.90
2018-01-23T02:01:04.907Z,1007.90
2018-01-23T02:02:04.903Z,1007.96
2018-01-23T02:03:04.897Z,1007.95
2018-01-23T02:04:04.892Z,1007.94
2018-01-23T02:05:04.887Z,1007.97
2018-01-23T02:06:04.883Z,1008.01
2018-01-23T02:07:04.876Z,1008.02
2018-01-23T02:08:04.873Z,1008.04
2018-01-23T02:09:04.868Z,1008.04
2018-01-23T02:10:04.862Z,1008.01
2018-01-23T02:11:04.858Z,1008.03
2018-01-23T02:12:04.854Z,1008.03
2018-01-23T02:13:04.848Z,1008.07
2018-01-23T02:14:04.844Z,1008.11
2018-01-23T02:15:04.839Z,1008.11
2018-01-23T02:16:04.833Z,1008.12
2018-01-23T02:17:04.829Z,1008.06
2018-01-23T02:18:04.823Z,1008.12
2018-01-23T02:19:04.818Z,1008.10
2018-01-23T02:20:04.814Z,1008.09
2018-01-23T02:21:04.810Z,1008.16
2018-01-23T02:22:04.804Z,1008.15
2018-01-23T02:23:04.799Z,1008.19
2018-01-23T02:24:04.795Z,1008.19
2018-01-23T02:25:04.789Z,1008.20
2018-01-23T02:26:04.785Z,1008.19
2018-01-23T02:27:04.781Z,1008.21
2018-01-23T02:28:04.776Z,1008.21
2018-01-23T02:29:04.771Z,1008.25
2018-01-23T02:30:04.765Z,1008.20
2018-01-23T02:31:04.760Z,1008.24
2018-01-23T02:32:04.756Z,1008.25
2018-01-23T02:33:04.751Z,1008.22
2018-01-23T02:34:04.746Z,1008.20
2018-01-23T02:35:04.740Z,1008.19
2018-01-23T02:36:04.736Z,1008.16
2018-01-23T02:37:04.732Z,1008.18
2018-01-23T02:38:04.727Z,1008.15
2018-01-23T02:39:04.721Z,1008.10
2018-01-23T02:40:04.717Z,1008.12
2018-01-23T02:41:04.713Z,1008.11
2018-01-23T02:42:04.707Z,1008.12
2018-01-23T02:43:04.703Z,1008.12
2018-01-23T02:44:04.697Z,1008.12
2018-01-23T02:45:04.694Z,1008.10
2018-01-23T02:46:04.688Z,1008.14
2018-01-23T02:47:04.683Z,1008.15
2018-01-23T02:48:04.678Z,1008.17
2018-01-23T02:49:04.676Z,1008.22
2018-01-23T02:50:04.668Z,1008.25
2018-01-23T02:51:04.663Z,1008.18
2018-01-23T02:52:04.660Z,1008.21
2018-01-23T02:53:04.654Z,1008.23
2018-01-23T02:54:04.649Z,1008.26
2018-01-23T02:55:04.645Z,1008.22
2018-01-23T02:56:04.639Z,1008.32
2018-01-23T02:57:04.636Z,1008.29
2018-01-23T02:58:04.630Z,1008.34
2018-01-23T02:59:04.624Z,1008.34
2018-01-23T03:00:04.620Z,1008.35
2018-01-23T03:01:04.616Z,1008.38
2018-01-23T03:02:04.610Z,1008.41
2018-01-23T03:03:04.604Z,1008.44
2018-01-23T03:04:04.600Z,1008.42
2018-01-23T03:05:04.596Z,1008.41
2018-01-23T03:06:04.589Z,1008.47
2018-01-23T03:07:04.585Z,1008.43
2018-01-23T03:08:04.581Z,1008.48
2018-01-23T03:09:04.574Z,1008.52
2018-01-23T03:10:04.570Z,1008.51
2018-01-23T03:11:04.565Z,1008.54
2018-01-23T03:12:04.561Z,1008.48
2018-01-23T03:13:04.555Z,1008.46
2018-01-23T03:14:04.549Z,1008.47
2018-01-23T03:15:04.545Z,1008.53
2018-01-23T03:16:04.541Z,1008.49
2018-01-23T03:17:04.534Z,1008.48
2018-01-23T03:18:04.530Z,1008.53
2018-01-23T03:19:04.525Z,1008.57
2018-01-23T03:20:04.520Z,1008.58
2018-01-23T03:21:04.515Z,1008.59
2018-01-23T03:22:04.509Z,1008.55
2018-01-23T03:23:04.504Z,1008.55
2018-01-23T03:24:04.501Z,1008.58
2018-01-23T03:25:04.494Z,1008.56
2018-01-23T03:26:04.491Z,1008.56
2018-01-23T03:27:04.485Z,1008.56
2018-01-23T03:28:04.481Z,1008.60
2018-01-23T03:29:04.474Z,1008.61
2018-01-23T03:30:04.469Z,1008.58
2018-01-23T03:31:04.465Z,1008.56
2018-01-23T03:32:04.462Z,1008.65
2018-01-23T03:33:04.454Z,1008.62
2018-01-23T03:34:04.447Z,1008.61
2018-01-23T03:35:04.444Z,1008.62
2018-01-23T03:36:04.440Z,1008.55
2018-01-23T03:37:04.433Z,1008.57
2018-01-23T03:38:04.430Z,1008.62
2018-01-23T03:39:04.424Z,1008.61
2018-01-23T03:40:04.418Z,1008.62
2018-01-23T03:41:04.414Z,1008.61
2018-01-23T03:42:04.409Z,1008.61
2018-01-23T03:43:04.403Z,1008.66
2018-01-23T03:44:04.399Z,1008.68
2018-01-23T03:45:04.397Z,1008.71
2018-01-23T03:46:04.388Z,1008.70
2018-01-23T03:47:04.384Z,1008.68
2018-01-23T03:48:04.379Z,1008.72
2018-01-23T03:49:04.375Z,1008.75
2018-01-23T03:50:04.369Z,1008.82
2018-01-23T03:51:04.364Z,1008.84
2018-01-23T03:52:04.359Z,1008.86
2018-01-23T03:53:04.353Z,1008.84
2018-01-23T03:54:04.349Z,1008.83
2018-01-23T03:55:04.344Z,1008.89
2018-01-23T03:56:04.340Z,1008.85
2018-01-23T03:57:04.333Z,1008.92
2018-01-23T03:58:04.328Z,1008.95
2018-01-23T03:59:04.323Z,1008.95
2018-01-23T04:00:04.318Z,1008.95
2018-01-23T04:01:04.314Z,1008.99
2018-01-23T04:02:04.308Z,1008.98
2018-01-23T04:03:04.302Z,1008.97
2018-01-23T04:04:04.298Z,1009.01
2018-01-23T04:05:04.293Z,1009.01
2018-01-23T04:06:04.287Z,1009.05
2018-01-23T04:07:04.282Z,1009.06
2018-01-23T04:08:04.278Z,1009.05
2018-01-23T04:09:04.273Z,1009.06
2018-01-23T04:10:04.269Z,1009.07
2018-01-23T04:11:04.262Z,1009.03
2018-01-23T04:12:04.258Z,1008.99
2018-01-23T04:13:04.253Z,1008.97
2018-01-23T04:14:04.246Z,1009.01
2018-01-23T04:15:04.241Z,1009.06
2018-01-23T04:16:04.240Z,1009.05
2018-01-23T04:17:04.232Z,1009.07
2018-01-23T04:18:04.228Z,1009.08
2018-01-23T04:19:04.223Z,1009.11
2018-01-23T04:20:04.218Z,1009.11
2018-01-23T04:21:04.213Z,1009.15
2018-01-23T04:22:04.208Z,1009.08
2018-01-23T04:23:04.202Z,1009.15
2018-01-23T04:24:04.198Z,1009.11
2018-01-23T04:25:04.193Z,1009.10
2018-01-23T04:26:04.187Z,1009.12
2018-01-23T04:27:04.184Z,1009.16
2018-01-23T04:28:04.179Z,1009.16
2018-01-23T04:29:04.173Z,1009.17
2018-01-23T04:30:04.169Z,1009.21
2018-01-23T04:31:04.163Z,1009.19
2018-01-23T04:32:04.159Z,1009.18
2018-01-23T04:33:04.153Z,1009.22
2018-01-23T04:34:04.147Z,1009.14
2018-01-23T04:35:04.142Z,1009.21
2018-01-23T04:36:04.138Z,1009.20
2018-01-23T04:37:04.133Z,1009.21
2018-01-23T04:38:04.127Z,1009.25
2018-01-23T04:39:04.123Z,1009.21
2018-01-23T04:40:04.118Z,1009.23
2018-01-23T04:41:04.113Z,1009.25
2018-01-23T04:42:04.107Z,1009.26
2018-01-23T04:43:04.104Z,1009.25
2018-01-23T04:44:04.098Z,1009.27
2018-01-23T04:45:04.094Z,1009.25
2018-01-23T04:46:04.090Z,1009.30
2018-01-23T04:47:04.090Z,1009.30
2018-01-23T04:48:04.080Z,1009.31
2018-01-23T04:49:04.075Z,1009.34
2018-01-23T04:50:04.068Z,1009.31
2018-01-23T04:51:04.063Z,1009.31
2018-01-23T04:52:04.058Z,1009.34
2018-01-23T04:53:04.054Z,1009.31
2018-01-23T04:54:04.048Z,1009.32
2018-01-23T04:55:04.044Z,1009.40
2018-01-23T04:56:04.039Z,1009.42
2018-01-23T04:57:04.034Z,1009.42
2018-01-23T04:58:04.029Z,1009.39
2018-01-23T04:59:04.024Z,1009.42
2018-01-23T05:00:04.019Z,1009.40
2018-01-23T05:01:04.014Z,1009.39
2018-01-23T05:02:04.008Z,1009.40
2018-01-23T05:03:04.005Z,1009.39
2018-01-23T05:04:03.998Z,1009.40
2018-01-23T05:05:03.994Z,1009.42
2018-01-23T05:06:03.988Z,1009.44
2018-01-23T05:07:03.983Z,1009.50
2018-01-23T05:08:03.980Z,1009.47
2018-01-23T05:09:03.974Z,1009.42
2018-01-23T05:10:03.970Z,1009.45
2018-01-23T05:11:03.965Z,1009.43
2018-01-23T05:12:03.959Z,1009.46
2018-01-23T05:13:03.954Z,1009.47
2018-01-23T05:14:03.948Z,1009.51
2018-01-23T05:15:03.945Z,1009.50
2018-01-23T05:16:03.940Z,1009.50
2018-01-23T05:17:03.935Z,1009.48
2018-01-23T05:18:03.929Z,1009.46
2018-01-23T05:19:03.924Z,1009.45
2018-01-23T05:20:03.920Z,1009.43
2018-01-23T05:21:03.915Z,1009.41
2018-01-23T05:22:03.909Z,1009.44
2018-01-23T05:23:03.905Z,1009.43
2018-01-23T05:24:03.900Z,1009.41
2018-01-23T05:25:03.900Z,1009.46
2018-01-23T05:26:03.890Z,1009.47
2018-01-23T05:27:03.885Z,1009.45
2018-01-23T05:28:03.881Z,1009.47
2018-01-23T05:29:03.877Z,1009.51
2018-01-23T05:30:03.871Z,1009.46
2018-01-23T05:31:03.866Z,1009.49
2018-01-23T05:32:03.861Z,1009.47
2018-01-23T05:33:03.858Z,1009.46
2018-01-23T05:34:03.851Z,1009.46
2018-01-23T05:35:03.847Z,1009.49
2018-01-23T05:36:03.843Z,1009.52
2018-01-23T05:37:03.839Z,1009.50
2018-01-23T05:38:03.832Z,1009.46
2018-01-23T05:39:03.827Z,1009.51
2018-01-23T05:40:03.823Z,1009.51
2018-01-23T05:41:03.818Z,1009.54
2018-01-23T05:42:03.814Z,1009.53
2018-01-23T05:43:03.809Z,1009.59
2018-01-23T05:44:03.807Z,1009.53
2018-01-23T05:45:03.800Z,1009.60
2018-01-23T05:46:03.794Z,1009.61
2018-01-23T05:47:03.789Z,1009.65
2018-01-23T05:48:03.786Z,1009.60
2018-01-23T05:49:03.779Z,1009.59
2018-01-23T05:50:03.774Z,1009.59
2018-01-23T05:51:03.769Z,1009.58
2018-01-23T05:52:03.765Z,1009.60
2018-01-23T05:53:03.761Z,1009.63
2018-01-23T05:54:03.754Z,1009.69
2018-01-23T05:55:03.753Z,1009.67
2018-01-23T05:56:03.746Z,1009.74
2018-01-23T05:57:03.740Z,1009.72
2018-01-23T05:58:03.735Z,1009.76
2018-01-23T05:59:03.730Z,1009.79
2018-01-23T06:00:03.725Z,1009.83
2018-01-23T06:01:03.722Z,1009.84
2018-01-23T06:02:03.715Z,1009.76
2018-01-23T06:03:03.711Z,1009.79
2018-01-23T06:04:03.706Z,1009.80
2018-01-23T06:05:03.701Z,1009.84
2018-01-23T06:06:03.696Z,1009.83
2018-01-23T06:07:03.693Z,1009.86
2018-01-23T06:08:03.687Z,1009.87
2018-01-23T06:09:03.682Z,1009.88
2018-01-23T06:10:03.676Z,1009.94
2018-01-23T06:11:03.674Z,1010.02
2018-01-23T06:12:03.669Z,1009.96
2018-01-23T06:13:03.664Z,1009.98
2018-01-23T06:14:03.663Z,1010.02
2018-01-23T06:15:03.653Z,1010.00
2018-01-23T06:16:03.649Z,1010.03
2018-01-23T06:17:03.643Z,1010.03
2018-01-23T06:18:03.637Z,1009.99
2018-01-23T06:19:03.632Z,1010.00
2018-01-23T06:20:03.628Z,1010.01
2018-01-23T06:21:03.624Z,1009.99
2018-01-23T06:22:03.619Z,1010.01
2018-01-23T06:23:03.614Z,1010.08
2018-01-23T06:24:03.608Z,1010.06
2018-01-23T06:25:03.603Z,1010.03
2018-01-23T06:26:03.597Z,1010.01
2018-01-23T06:27:03.593Z,1010.01
2018-01-23T06:28:03.589Z,1010.02
2018-01-23T06:29:03.585Z,1010.03
2018-01-23T06:30:03.579Z,1010.03
2018-01-23T06:31:03.573Z,1010.01
2018-01-23T06:32:03.569Z,1010.01
2018-01-23T06:33:03.570Z,1009.97
2018-01-23T06:34:03.559Z,1009.97
2018-01-23T06:35:03.557Z,1010.03
2018-01-23T06:36:03.550Z,1010.07
2018-01-23T06:37:03.544Z,1010.09
2018-01-23T06:38:03.539Z,1010.06
2018-01-23T06:39:03.535Z,1010.02
2018-01-23T06:40:03.531Z,1010.09
2018-01-23T06:41:03.527Z,1010.06
2018-01-23T06:42:03.524Z,1010.13
2018-01-23T06:43:03.521Z,1010.09
2018-01-23T06:44:03.511Z,1010.05
2018-01-23T06:45:03.507Z,1010.06
2018-01-23T06:46:03.501Z,1010.04
2018-01-23T06:47:03.495Z,1010.09
2018-01-23T06:48:03.492Z,1010.07
2018-01-23T06:49:03.489Z,1010.07
2018-01-23T06:50:03.481Z,1010.08
2018-01-23T06:51:03.476Z,1010.05
2018-01-23T06:52:03.470Z,1010.09
2018-01-23T06:53:03.467Z,1010.03
2018-01-23T06:54:03.460Z,1010.08
2018-01-23T06:55:03.457Z,1010.15
2018-01-23T06:56:03.451Z,1010.14
2018-01-23T06:57:03.447Z,1010.16
2018-01-23T06:58:03.441Z,1010.19
2018-01-23T06:59:03.437Z,1010.26
2018-01-23T07:00:03.431Z,1010.18
2018-01-23T07:01:03.427Z,1010.22
2018-01-23T07:02:03.424Z,1010.28
2018-01-23T07:03:03.416Z,1010.22
2018-01-23T07:04:03.412Z,1010.27
2018-01-23T07:05:03.407Z,1010.28
2018-01-23T07:06:03.402Z,1010.27
2018-01-23T07:07:03.398Z,1010.31
2018-01-23T07:08:03.391Z,1010.29
2018-01-23T07:09:03.387Z,1010.31
2018-01-23T07:10:03.383Z,1010.27
2018-01-23T07:11:03.377Z,1010.28
2018-01-23T07:12:03.373Z,1010.31
2018-01-23T07:13:03.367Z,1010.31
2018-01-23T07:14:03.362Z,1010.31
2018-01-23T07:15:03.360Z,1010.32
2018-01-23T07:16:03.352Z,1010.32
2018-01-23T07:17:03.349Z,1010.32
2018-01-23T07:18:03.344Z,1010.32
2018-01-23T07:19:03.338Z,1010.33
2018-01-23T07:20:03.334Z,1010.33
2018-01-23T07:21:03.327Z,1010.30
2018-01-23T07:22:03.322Z,1010.36
2018-01-23T07:23:03.317Z,1010.39
2018-01-23T07:24:03.315Z,1010.42
2018-01-23T07:25:03.309Z,1010.39
2018-01-23T07:26:03.307Z,1010.41
2018-01-23T07:27:03.299Z,1010.39
2018-01-23T07:28:03.294Z,1010.41
2018-01-23T07:29:03.288Z,1010.38
2018-01-23T07:30:03.283Z,1010.42
2018-01-23T07:31:03.278Z,1010.45
2018-01-23T07:32:03.272Z,1010.46
2018-01-23T07:33:03.268Z,1010.39
2018-01-23T07:34:03.263Z,1010.46
2018-01-23T07:35:03.258Z,1010.47
2018-01-23T07:36:03.254Z,1010.48
2018-01-23T07:37:03.250Z,1010.51
2018-01-23T07:38:03.245Z,1010.49
2018-01-23T07:39:03.239Z,1010.53
2018-01-23T07:40:03.234Z,1010.55
2018-01-23T07:41:03.230Z,1010.53
2018-01-23T07:42:03.223Z,1010.54
2018-01-23T07:43:03.220Z,1010.53
2018-01-23T07:44:03.215Z,1010.57
2018-01-23T07:45:03.211Z,1010.58
2018-01-23T07:46:03.207Z,1010.56
2018-01-23T07:47:03.199Z,1010.54
2018-01-23T07:48:03.196Z,1010.58
2018-01-23T07:49:03.190Z,1010.54
2018-01-23T07:50:03.186Z,1010.57
2018-01-23T07:51:03.188Z,1010.61
2018-01-23T07:52:03.177Z,1010.58
2018-01-23T07:53:03.172Z,1010.58
2018-01-23T07:54:03.167Z,1010.58
2018-01-23T07:55:03.162Z,1010.61
2018-01-23T07:56:03.156Z,1010.64
2018-01-23T07:57:03.153Z,1010.63
2018-01-23T07:58:03.147Z,1010.60
2018-01-23T07:59:03.142Z,1010.64
2018-01-23T08:00:03.139Z,1010.67
2018-01-23T08:01:03.175Z,1010.72
2018-01-23T08:02:03.127Z,1010.70
2018-01-23T08:03:03.122Z,1010.70
2018-01-23T08:04:03.119Z,1010.67
2018-01-23T08:05:03.114Z,1010.68
2018-01-23T08:06:03.109Z,1010.74
2018-01-23T08:07:03.104Z,1010.77
2018-01-23T08:08:03.099Z,1010.73
2018-01-23T08:09:03.101Z,1010.77
2018-01-23T08:10:03.089Z,1010.77
2018-01-23T08:11:03.084Z,1010.78
2018-01-23T08:12:03.083Z,1010.79
2018-01-23T08:13:03.076Z,1010.80
2018-01-23T08:14:03.070Z,1010.87
2018-01-23T08:15:03.065Z,1010.80
2018-01-23T08:16:03.060Z,1010.82
2018-01-23T08:17:03.055Z,1010.87
2018-01-23T08:18:03.050Z,1010.94
2018-01-23T08:19:03.048Z,1010.94
2018-01-23T08:20:03.042Z,1010.89
2018-01-23T08:21:03.039Z,1010.83
2018-01-23T08:22:03.033Z,1010.85
2018-01-23T08:23:03.027Z,1010.86
2018-01-23T08:24:03.023Z,1010.85
2018-01-23T08:25:03.019Z,1010.89
2018-01-23T08:26:03.012Z,1010.91
2018-01-23T08:27:03.008Z,1010.83
2018-01-23T08:28:03.004Z,1010.80
2018-01-23T08:29:03.001Z,1010.81
2018-01-23T08:30:02.993Z,1010.81
2018-01-23T08:31:02.989Z,1010.82
2018-01-23T08:32:02.985Z,1010.78
2018-01-23T08:33:02.980Z,1010.79
2018-01-23T08:34:02.975Z,1010.79
2018-01-23T08:35:02.970Z,1010.82
2018-01-23T08:36:02.965Z,1010.84
2018-01-23T08:37:02.962Z,1010.83
2018-01-23T08:38:02.956Z,1010.82
2018-01-23T08:39:02.952Z,1010.84
2018-01-23T08:40:02.949Z,1010.83
2018-01-23T08:41:02.942Z,1010.83
2018-01-23T08:42:02.937Z,1010.85
2018-01-23T08:43:02.931Z,1010.84
2018-01-23T08:44:02.928Z,1010.85
2018-01-23T08:45:02.926Z,1010.87
2018-01-23T08:46:02.918Z,1010.88
2018-01-23T08:47:02.915Z,1010.89
2018-01-23T08:48:02.909Z,1010.92
2018-01-23T08:49:02.910Z,1010.93
2018-01-23T08:50:02.899Z,1010.94
2018-01-23T08:51:02.894Z,1010.87
2018-01-23T08:52:02.891Z,1010.87
2018-01-23T08:53:02.886Z,1010.91
2018-01-23T08:54:02.882Z,1010.87
2018-01-23T08:55:02.878Z,1010.89
2018-01-23T08:56:02.873Z,1010.91
2018-01-23T08:57:02.868Z,1010.91
2018-01-23T08:58:02.863Z,1010.90
2018-01-23T08:59:02.859Z,1010.88
2018-01-23T09:00:02.855Z,1010.89
2018-01-23T09:01:02.855Z,1010.91
2018-01-23T09:02:02.845Z,1010.90
2018-01-23T09:03:02.843Z,1010.92
2018-01-23T09:04:02.836Z,1010.92
2018-01-23T09:05:02.832Z,1010.96
2018-01-23T09:06:02.826Z,1010.98
2018-01-23T09:07:02.823Z,1010.97
2018-01-23T09:08:02.819Z,1010.99
2018-01-23T09:09:02.814Z,1010.98
2018-01-23T09:10:02.809Z,1010.96
2018-01-23T09:11:02.806Z,1010.93
2018-01-23T09:12:02.801Z,1010.93
2018-01-23T09:13:02.797Z,1010.97
2018-01-23T09:14:02.791Z,1010.99
2018-01-23T09:15:02.787Z,1011.03
2018-01-23T09:16:02.782Z,1011.01
2018-01-23T09:17:02.780Z,1011.02
2018-01-23T09:18:02.774Z,1011.04
2018-01-23T09:19:02.770Z,1010.96
2018-01-23T09:20:02.766Z,1010.97
2018-01-23T09:21:02.761Z,1010.96
2018-01-23T09:22:02.756Z,1010.96
2018-01-23T09:23:02.752Z,1010.96
2018-01-23T09:24:02.748Z,1010.93
2018-01-23T09:25:02.746Z,1010.90
2018-01-23T09:26:02.743Z,1010.94
2018-01-23T09:27:02.735Z,1010.95
2018-01-23T09:28:02.730Z,1010.97
2018-01-23T09:29:02.727Z,1010.92
2018-01-23T09:30:02.742Z,1011.00
2018-01-23T09:31:02.719Z,1010.96
2018-01-23T09:32:02.716Z,1010.92
2018-01-23T09:33:02.710Z,1010.94
2018-01-23T09:34:02.705Z,1010.94
2018-01-23T09:35:02.700Z,1010.97
2018-01-23T09:36:02.697Z,1010.94
2018-01-23T09:37:02.694Z,1010.99
2018-01-23T09:38:02.689Z,1010.94
2018-01-23T09:39:02.684Z,1010.94
2018-01-23T09:40:02.680Z,1010.91
2018-01-23T09:41:02.677Z,1010.91
2018-01-23T09:42:02.671Z,1010.93
2018-01-23T09:43:02.668Z,1010.95
2018-01-23T09:44:02.663Z,1011.00
2018-01-23T09:45:02.660Z,1010.92
2018-01-23T09:46:02.654Z,1010.94
2018-01-23T09:47:02.650Z,1010.97
2018-01-23T09:48:02.647Z,1010.96
2018-01-23T09:49:02.644Z,1010.98
2018-01-23T09:50:02.641Z,1011.02
2018-01-23T09:51:02.632Z,1010.99
2018-01-23T09:52:02.630Z,1011.02
2018-01-23T09:53:02.626Z,1011.03
2018-01-23T09:54:02.620Z,1011.05
2018-01-23T09:55:02.619Z,1011.01
2018-01-23T09:56:02.612Z,1011.03
2018-01-23T09:57:02.608Z,1011.02
2018-01-23T09:58:02.605Z,1011.01
2018-01-23T09:59:02.601Z,1011.05
2018-01-23T10:00:02.597Z,1011.04
2018-01-23T10:01:02.593Z,1011.01
2018-01-23T10:02:02.587Z,1011.06
2018-01-23T10:03:02.584Z,1011.06
2018-01-23T10:04:02.580Z,1011.07
2018-01-23T10:05:02.576Z,1011.08
2018-01-23T10:06:02.571Z,1011.08
2018-01-23T10:07:02.566Z,1011.14
2018-01-23T10:08:02.563Z,1011.16
2018-01-23T10:09:02.559Z,1011.20
2018-01-23T10:10:02.555Z,1011.17
2018-01-23T10:11:02.551Z,1011.16
2018-01-23T10:12:02.546Z,1011.18
2018-01-23T10:13:02.573Z,1011.16
2018-01-23T10:14:02.538Z,1011.16
2018-01-23T10:15:02.534Z,1011.20
2018-01-23T10:16:02.530Z,1011.16
2018-01-23T10:17:02.527Z,1011.15
2018-01-23T10:18:02.523Z,1011.16
2018-01-23T10:19:02.519Z,1011.17
2018-01-23T10:20:02.516Z,1011.22
2018-01-23T10:21:02.511Z,1011.17
2018-01-23T10:22:02.506Z,1011.15
2018-01-23T10:23:02.504Z,1011.19
2018-01-23T10:24:02.502Z,1011.15
2018-01-23T10:25:02.496Z,1011.15
2018-01-23T10:26:02.492Z,1011.13
2018-01-23T10:27:02.488Z,1011.12
2018-01-23T10:28:02.485Z,1011.13
2018-01-23T10:29:02.481Z,1011.07
2018-01-23T10:30:02.478Z,1011.02
2018-01-23T10:31:02.472Z,1011.04
2018-01-23T10:32:02.473Z,1011.06
2018-01-23T10:33:02.465Z,1011.02
2018-01-23T10:34:02.459Z,1010.97
2018-01-23T10:35:02.458Z,1010.94
2018-01-23T10:36:02.454Z,1010.93
2018-01-23T10:37:02.451Z,1010.96
2018-01-23T10:38:02.445Z,1010.94
2018-01-23T10:39:02.442Z,1010.96
2018-01-23T10:40:02.439Z,1010.96
2018-01-23T10:41:02.436Z,1010.96
2018-01-23T10:42:02.430Z,1010.96
2018-01-23T10:43:02.428Z,1010.90
2018-01-23T10:44:02.423Z,1010.97
2018-01-23T10:45:02.419Z,1010.93
2018-01-23T10:46:02.416Z,1010.96
2018-01-23T10:47:02.413Z,1010.96
2018-01-23T10:48:02.409Z,1010.93
2018-01-23T10:49:02.405Z,1010.88
2018-01-23T10:50:02.400Z,1010.95
2018-01-23T10:51:02.397Z,1010.96
2018-01-23T10:52:02.393Z,1010.95
2018-01-23T10:53:02.390Z,1010.86
2018-01-23T10:54:02.385Z,1010.87
2018-01-23T10:55:02.383Z,1010.88
2018-01-23T10:56:02.378Z,1010.90
2018-01-23T10:57:02.375Z,1010.92
2018-01-23T10:58:02.372Z,1010.92
2018-01-23T10:59:02.368Z,1010.97
2018-01-23T11:00:02.364Z,1010.96
2018-01-23T11:01:02.360Z,1011.03
2018-01-23T11:02:02.354Z,1010.95
2018-01-23T11:03:02.358Z,1010.98
2018-01-23T11:04:02.350Z,1010.95
2018-01-23T11:05:02.346Z,1010.93
2018-01-23T11:06:02.341Z,1010.93
2018-01-23T11:07:02.337Z,1010.92
2018-01-23T11:08:02.338Z,1010.91
2018-01-23T11:09:02.331Z,1010.91
2018-01-23T11:10:02.327Z,1010.91
2018-01-23T11:11:02.323Z,1010.92
2018-01-23T11:12:02.319Z,1010.89
2018-01-23T11:13:02.315Z,1010.91
2018-01-23T11:14:02.311Z,1010.89
2018-01-23T11:15:02.309Z,1010.87
2018-01-23T11:16:02.305Z,1010.82
2018-01-23T11:17:02.303Z,1010.81
2018-01-23T11:18:02.298Z,1010.81
2018-01-23T11:19:02.293Z,1010.76
2018-01-23T11:20:02.340Z,1010.79
2018-01-23T11:21:02.288Z,1010.82
2018-01-23T11:22:02.281Z,1010.75
2018-01-23T11:23:02.278Z,1010.78
2018-01-23T11:24:02.275Z,1010.76
2018-01-23T11:25:02.271Z,1010.80
2018-01-23T11:26:02.271Z,1010.77
2018-01-23T11:27:02.265Z,1010.72
2018-01-23T11:28:02.261Z,1010.75
2018-01-23T11:29:02.262Z,1010.73
2018-01-23T11:30:02.253Z,1010.75
2018-01-23T11:31:02.249Z,1010.78
2018-01-23T11:32:02.246Z,1010.74
2018-01-23T11:33:02.242Z,1010.74
2018-01-23T11:34:02.237Z,1010.72
2018-01-23T11:35:02.234Z,1010.71
2018-01-23T11:36:02.231Z,1010.67
2018-01-23T11:37:02.228Z,1010.65
2018-01-23T11:38:02.224Z,1010.64
2018-01-23T11:39:02.220Z,1010.62
2018-01-23T11:40:02.217Z,1010.60
2018-01-23T11:41:02.214Z,1010.56
2018-01-23T11:42:02.209Z,1010.56
2018-01-23T11:43:02.207Z,1010.54
2018-01-23T11:44:02.202Z,1010.57
2018-01-23T11:45:02.198Z,1010.57
2018-01-23T11:46:02.193Z,1010.58
2018-01-23T11:47:02.190Z,1010.56
2018-01-23T11:48:02.187Z,1010.58
2018-01-23T11:49:02.185Z,1010.58
2018-01-23T11:50:02.180Z,1010.54
2018-01-23T11:51:02.177Z,1010.55
2018-01-23T11:52:02.172Z,1010.56
2018-01-23T11:53:02.170Z,1010.53
2018-01-23T11:54:02.168Z,1010.50
2018-01-23T11:55:02.163Z,1010.49
2018-01-23T11:56:02.162Z,1010.45
2018-01-23T11:57:02.161Z,1010.47
2018-01-23T11:58:02.152Z,1010.43
2018-01-23T11:59:02.149Z,1010.43
2018-01-23T12:00:02.145Z,1010.41
2018-01-23T12:01:02.142Z,1010.42
2018-01-23T12:02:02.137Z,1010.42
2018-01-23T12:03:02.134Z,1010.50
2018-01-23T12:04:02.132Z,1010.31
2018-01-23T12:05:02.130Z,1010.36